Time;durP1;ratioP1;P1;durP2;ratioP2;P2;SDS_P1;SDS_P2;PMS_P1;PMS_P2;Temp;Humidity;BMP_temperature;BMP_pressure;BME280_temperature;BME280_humidity;BME280_pressure;Samples;Min_cycle;Max_cycle;Signal;HPM_P1;HPM_P2
2020/12/14 00:02:27;;;;;;;169.65;61.90;;;;;;;3.81;85.05;100875.23;1690842;84;21131;-78
2020/12/14 00:04:54;;;;;;;174.40;66.28;;;;;;;3.80;85.02;100875.20;1682615;84;21155;-78
2020/12/14 00:07:24;;;;;;;175.93;64.35;;;;;;;3.81;85.08;100879.48;1683622;85;21135;-78
2020/12/14 00:09:50;;;;;;;172.15;60.55;;;;;;;3.80;85.09;100881.17;1688725;84;21380;-78
2020/12/14 00:12:17;;;;;;;161.55;63.35;;;;;;;3.81;85.11;100882.90;1689222;84;21008;-78
2020/12/14 00:14:43;;;;;;;165.00;62.40;;;;;;;3.83;85.08;100894.44;1688526;84;21672;-78
2020/12/14 00:17:09;;;;;;;170.38;63.92;;;;;;;3.83;85.11;100894.02;1687148;84;21217;-78
2020/12/14 00:19:36;;;;;;;179.23;62.73;;;;;;;3.84;85.14;100899.58;1686788;84;21206;-78
2020/12/14 00:22:02;;;;;;;164.52;62.78;;;;;;;3.85;85.15;100898.73;1687331;84;21675;-78
2020/12/14 00:24:28;;;;;;;173.28;64.35;;;;;;;3.86;85.13;100903.02;1687260;84;21710;-78
2020/12/14 00:26:54;;;;;;;175.22;62.45;;;;;;;3.87;85.12;100903.88;1686928;84;21635;-78
2020/12/14 00:29:21;;;;;;;162.15;62.25;;;;;;;3.86;85.13;100906.85;1687353;84;21226;-78
2020/12/14 00:31:54;;;;;;;178.47;64.95;;;;;;;3.86;85.17;100906.85;1686862;84;21198;-78
2020/12/14 00:34:22;;;;;;;159.50;58.90;;;;;;;3.87;85.16;100903.88;1687227;84;21361;-78
2020/12/14 00:36:48;;;;;;;156.15;59.58;;;;;;;3.88;85.17;100910.72;1688802;84;21465;-78
2020/12/14 00:39:15;;;;;;;171.62;61.08;;;;;;;3.89;85.16;100913.72;1689247;84;21138;-78
2020/12/14 00:41:41;;;;;;;164.30;62.13;;;;;;;3.89;85.18;100916.27;1687035;84;21123;-78
2020/12/14 00:44:07;;;;;;;165.68;61.50;;;;;;;3.90;85.19;100916.72;1657608;84;21119;-79
2020/12/14 00:46:33;;;;;;;162.47;60.23;;;;;;;3.89;85.18;100912.02;1663967;84;21698;-79
2020/12/14 00:49:00;;;;;;;168.37;59.80;;;;;;;3.90;85.20;100923.97;1686713;84;21213;-79
2020/12/14 00:51:31;;;;;;;167.60;62.48;;;;;;;3.91;85.20;100921.00;1686341;84;21656;-79
2020/12/14 00:53:58;;;;;;;160.57;58.25;;;;;;;3.91;85.21;100921.00;1687211;84;21668;-79
2020/12/14 00:56:25;;;;;;;169.32;60.70;;;;;;;3.91;85.22;100923.14;1686865;84;21253;-79
2020/12/14 00:58:51;;;;;;;159.75;61.40;;;;;;;3.92;85.23;100926.55;1687385;84;21205;-79
2020/12/14 01:01:18;;;;;;;157.82;60.03;;;;;;;3.91;85.21;100919.30;1686955;84;21222;-79
2020/12/14 01:03:45;;;;;;;155.27;61.35;;;;;;;3.90;85.22;100920.14;1664507;84;21639;-78
2020/12/14 01:06:12;;;;;;;173.22;60.90;;;;;;;3.90;85.22;100923.11;1687265;84;21242;-78
2020/12/14 01:08:41;;;;;;;159.25;60.83;;;;;;;3.90;85.25;100917.58;1656762;84;21259;-78
2020/12/14 01:11:08;;;;;;;175.40;64.67;;;;;;;3.90;85.25;100921.84;1686231;84;21210;-79
2020/12/14 01:13:35;;;;;;;161.20;60.88;;;;;;;3.90;85.28;100920.55;1684784;84;21201;-79
2020/12/14 01:16:01;;;;;;;169.20;61.92;;;;;;;3.90;85.27;100919.27;1684142;84;21218;-79
2020/12/14 01:18:27;;;;;;;173.13;59.50;;;;;;;3.89;85.28;100920.97;1683323;84;21225;-79
2020/12/14 01:20:53;;;;;;;172.85;62.85;;;;;;;3.90;85.33;100919.27;1685628;85;21676;-79
2020/12/14 01:23:20;;;;;;;165.35;60.50;;;;;;;3.88;85.31;100919.25;1685869;84;21667;-79
2020/12/14 01:25:46;;;;;;;187.27;61.55;;;;;;;3.88;85.31;100915.83;1687054;84;21265;-79
2020/12/14 01:28:12;;;;;;;183.30;63.63;;;;;;;3.87;85.34;100918.81;1686892;84;21202;-79
2020/12/14 01:30:38;;;;;;;174.60;62.98;;;;;;;3.85;85.31;100917.92;1687468;84;21234;-79
2020/12/14 01:33:05;;;;;;;178.78;62.78;;;;;;;3.83;85.33;100918.73;1687107;84;21198;-79
2020/12/14 01:35:31;;;;;;;170.28;60.12;;;;;;;3.81;85.32;100926.80;1687292;84;21636;-79
2020/12/14 01:37:57;;;;;;;171.90;62.93;;;;;;;3.79;85.36;100917.82;1683484;83;21681;-79
2020/12/14 01:40:23;;;;;;;165.57;60.80;;;;;;;3.80;85.41;100923.80;1687476;84;21228;-79
2020/12/14 01:42:49;;;;;;;185.07;61.25;;;;;;;3.81;85.41;100924.24;1687673;84;21126;-79
2020/12/14 01:45:30;;;;;;;173.81;62.34;;;;;;;3.78;85.38;100927.61;1616497;84;20013322;-79
2020/12/14 01:48:00;;;;;;;173.53;61.18;;;;;;;3.76;85.59;100928.42;1719164;83;22332;-78
2020/12/14 01:50:27;;;;;;;159.15;58.60;;;;;;;3.75;85.42;100925.00;1719365;81;21162;-78
2020/12/14 01:52:59;;;;;;;170.12;62.48;;;;;;;3.76;85.42;100919.47;1719848;83;21118;-78
2020/12/14 01:55:29;;;;;;;164.20;57.85;;;;;;;3.75;85.42;100920.30;1719003;83;21500;-78
2020/12/14 01:57:55;;;;;;;162.20;61.55;;;;;;;3.74;85.47;100924.55;1719138;83;21134;-78
2020/12/14 02:00:21;;;;;;;160.48;61.68;;;;;;;3.74;85.47;100922.00;1682961;85;21898;-78
2020/12/14 02:02:48;;;;;;;162.95;59.93;;;;;;;3.76;85.50;100922.02;1700421;83;21142;-78
2020/12/14 02:05:14;;;;;;;174.18;60.55;;;;;;;3.77;85.48;100922.05;1719766;83;21120;-78
2020/12/14 02:07:40;;;;;;;162.70;59.05;;;;;;;3.78;85.49;100921.22;1719167;82;21110;-78
2020/12/14 02:10:06;;;;;;;179.72;60.73;;;;;;;3.79;85.48;100927.19;1719985;83;21146;-78
2020/12/14 02:12:33;;;;;;;166.30;60.92;;;;;;;3.77;85.49;100920.77;1719699;83;21247;-78
2020/12/14 02:14:59;;;;;;;159.18;58.20;;;;;;;3.77;85.49;100927.16;1718657;82;21111;-78
2020/12/14 02:17:26;;;;;;;154.07;59.80;;;;;;;3.77;85.51;100925.89;1719880;83;21114;-78
2020/12/14 02:19:54;;;;;;;164.07;58.92;;;;;;;3.79;85.53;100928.47;1719270;83;21102;-78
2020/12/14 02:22:24;;;;;;;168.47;61.48;;;;;;;3.79;85.50;100926.77;1719355;83;21098;-78
2020/12/14 02:24:59;;;;;;;154.90;60.23;;;;;;;3.79;85.53;100924.63;1719306;83;21389;-78
2020/12/14 02:27:29;;;;;;;165.10;61.77;;;;;;;3.78;85.50;100915.23;1719733;83;21471;-78
2020/12/14 02:29:56;;;;;;;154.85;60.58;;;;;;;3.75;85.51;100916.05;1719868;83;21134;-78
2020/12/14 02:32:25;;;;;;;163.05;59.10;;;;;;;3.74;85.54;100912.19;1692146;83;21134;-79
2020/12/14 02:34:51;;;;;;;156.22;59.00;;;;;;;3.76;85.59;100919.47;1719903;83;21142;-79
2020/12/14 02:37:26;;;;;;;157.00;57.40;;;;;;;3.77;85.61;100918.22;1719667;83;21118;-79
2020/12/14 02:39:53;;;;;;;165.75;60.23;;;;;;;3.78;85.61;100923.77;1720061;83;21137;-79
2020/12/14 02:42:21;;;;;;;164.28;58.98;;;;;;;3.80;85.60;100918.69;1719552;83;21150;-79
2020/12/14 02:44:48;;;;;;;146.87;57.05;;;;;;;3.81;85.59;100918.70;1719736;83;21881;-79
2020/12/14 02:47:16;;;;;;;156.18;58.10;;;;;;;3.83;85.62;100926.41;1719529;83;21090;-79
2020/12/14 02:49:43;;;;;;;167.70;60.40;;;;;;;3.83;85.61;100918.73;1719831;83;21408;-79
2020/12/14 02:52:11;;;;;;;159.03;57.58;;;;;;;3.84;85.60;100917.89;1704078;83;21142;-79
2020/12/14 02:54:39;;;;;;;153.97;58.02;;;;;;;3.85;85.59;100923.45;1688423;84;21154;-79
2020/12/14 02:57:05;;;;;;;166.60;58.95;;;;;;;3.86;85.60;100917.50;1717954;83;21666;-79
2020/12/14 02:59:32;;;;;;;163.90;61.73;;;;;;;3.87;85.61;100921.37;1719687;83;21512;-79
2020/12/14 03:01:58;;;;;;;159.05;57.58;;;;;;;3.87;85.62;100912.41;1719741;81;21691;-79
2020/12/14 03:04:24;;;;;;;145.53;56.68;;;;;;;3.87;85.61;100920.09;1719448;83;21650;-78
2020/12/14 03:06:51;;;;;;;164.20;59.45;;;;;;;3.87;85.60;100921.37;1719817;83;21004;-78
2020/12/14 03:09:21;;;;;;;148.65;57.25;;;;;;;3.88;85.64;100919.67;1719920;82;21167;-78
2020/12/14 03:11:48;;;;;;;155.90;58.73;;;;;;;3.88;85.61;100919.67;1719629;83;21134;-78
2020/12/14 03:14:15;;;;;;;162.72;59.20;;;;;;;3.88;85.63;100915.41;1714938;83;21610;-78
2020/12/14 03:16:43;;;;;;;143.70;57.23;;;;;;;3.90;85.65;100912.88;1693235;82;21023;-78
2020/12/14 03:19:09;;;;;;;149.95;57.67;;;;;;;3.89;85.62;100918.83;1719205;81;21542;-78
2020/12/14 03:21:36;;;;;;;163.72;61.98;;;;;;;3.88;85.60;100923.50;1719684;83;21105;-78
2020/12/14 03:24:03;;;;;;;149.35;55.80;;;;;;;3.85;85.61;100917.92;1692785;83;21096;-78
2020/12/14 03:26:30;;;;;;;150.55;57.50;;;;;;;3.85;85.63;100923.45;1715987;83;21999;-78
2020/12/14 03:28:56;;;;;;;142.32;55.67;;;;;;;3.84;85.68;100926.43;1715802;83;21162;-78
2020/12/14 03:31:23;;;;;;;161.90;61.63;;;;;;;3.84;85.64;100928.13;1716036;83;21122;-78
2020/12/14 03:33:53;;;;;;;;;;;;;;;3.83;85.64;100926.41;1718472;83;21126;-78
2020/12/14 03:36:20;;;;;;;161.00;57.58;;;;;;;3.81;85.66;100925.10;1715770;83;20278;-78
2020/12/14 03:38:51;;;;;;;150.22;57.13;;;;;;;3.80;85.67;100923.38;1715975;83;21926;-78
2020/12/14 03:41:18;;;;;;;145.32;55.83;;;;;;;3.79;85.69;100924.63;1715663;83;21130;-78
2020/12/14 03:43:44;;;;;;;148.85;55.03;;;;;;;3.79;85.71;100929.33;1715654;83;21118;-79
2020/12/14 03:46:20;;;;;;;147.20;57.13;;;;;;;3.78;85.72;100926.33;1713562;83;21848;-79
2020/12/14 03:48:46;;;;;;;153.70;56.58;;;;;;;3.78;85.70;100928.03;1713040;83;21247;-79
2020/12/14 03:51:13;;;;;;;153.38;58.40;;;;;;;3.77;85.72;100925.89;1707897;83;21246;-79
2020/12/14 03:53:40;;;;;;;155.18;58.55;;;;;;;3.78;85.70;100929.30;1701314;83;21194;-79
2020/12/14 03:56:06;;;;;;;162.88;60.88;;;;;;;3.76;85.71;100925.44;1714106;83;21245;-79
2020/12/14 03:58:32;;;;;;;146.10;58.10;;;;;;;3.77;85.74;100933.56;1713754;83;21181;-79
2020/12/14 04:00:59;;;;;;;161.47;57.83;;;;;;;3.78;85.73;100933.14;1714474;83;21635;-79
2020/12/14 04:03:26;;;;;;;172.17;60.30;;;;;;;3.76;85.75;100930.56;1710454;83;21250;-79
2020/12/14 04:05:52;;;;;;;153.85;58.30;;;;;;;3.76;85.74;100925.86;1711398;83;22331;-79
2020/12/14 04:08:19;;;;;;;144.37;56.88;;;;;;;3.75;85.73;100924.14;1714306;83;25387;-79
2020/12/14 04:10:45;;;;;;;156.75;60.03;;;;;;;3.74;85.75;100925.83;1714605;83;21218;-79
2020/12/14 04:13:11;;;;;;;154.03;58.48;;;;;;;3.73;85.77;100933.06;1714254;83;21210;-79
2020/12/14 04:15:37;;;;;;;156.82;58.30;;;;;;;3.72;85.79;100927.92;1713908;83;21864;-79
2020/12/14 04:18:04;;;;;;;149.60;56.55;;;;;;;3.71;85.75;100936.43;1714188;83;21205;-79
2020/12/14 04:20:30;;;;;;;;;;;;;;;3.68;85.78;100938.52;1708119;83;21195;-79
2020/12/14 04:22:57;;;;;;;149.75;54.95;;;;;;;3.68;85.84;100948.75;1714105;83;20321;-79
2020/12/14 04:25:23;;;;;;;148.47;56.73;;;;;;;3.68;85.86;100946.19;1716772;82;21206;-79
2020/12/14 04:27:49;;;;;;;164.35;58.38;;;;;;;3.71;85.86;100949.22;1717607;83;21622;-78
2020/12/14 04:30:16;;;;;;;158.85;58.30;;;;;;;3.72;85.87;100954.78;1717736;83;21221;-78
2020/12/14 04:32:42;;;;;;;140.97;54.10;;;;;;;3.73;85.88;100953.94;1717697;83;21193;-78
2020/12/14 04:35:10;;;;;;;153.40;56.77;;;;;;;3.73;85.87;100957.36;1718028;83;21201;-78
2020/12/14 04:37:36;;;;;;;147.43;55.92;;;;;;;3.73;85.85;100953.94;1691016;83;22124;-78
2020/12/14 04:40:05;;;;;;;150.93;56.58;;;;;;;3.74;85.85;100955.66;1694374;83;21887;-78
2020/12/14 04:42:31;;;;;;;148.22;55.20;;;;;;;3.72;85.84;100958.20;1718254;83;21233;-79
2020/12/14 04:44:58;;;;;;;153.57;55.63;;;;;;;3.72;85.86;100960.75;1718046;83;21185;-79
2020/12/14 04:47:26;;;;;;;128.05;51.33;;;;;;;3.72;85.87;100968.42;1718220;83;21208;-79
2020/12/14 04:49:55;;;;;;;144.57;58.17;;;;;;;3.73;85.89;100968.01;1717432;83;21193;-79
2020/12/14 04:52:24;;;;;;;137.90;52.65;;;;;;;3.74;85.93;100976.13;1710083;81;21217;-79
2020/12/14 04:54:50;;;;;;;131.72;52.10;;;;;;;3.76;85.94;100974.45;1717848;83;21711;-79
2020/12/14 04:57:19;;;;;;;;;;;;;;;3.77;85.92;100974.48;1720218;83;21214;-79
2020/12/14 04:59:46;;;;;;;143.35;53.05;;;;;;;3.76;85.92;100968.06;1719798;83;20277;-79
2020/12/14 05:02:12;;;;;;;144.07;56.98;;;;;;;3.76;85.92;100970.20;1719985;83;21192;-79
2020/12/14 05:04:40;;;;;;;146.62;55.03;;;;;;;3.76;85.92;100966.36;1716452;83;21135;-79
2020/12/14 05:07:07;;;;;;;144.72;57.27;;;;;;;3.75;85.91;100965.92;1719750;83;21142;-79
2020/12/14 05:09:33;;;;;;;;;;;;;;;3.73;85.91;100970.14;1721677;83;21138;-79
2020/12/14 05:11:59;;;;;;;143.90;55.20;;;;;;;3.73;85.96;100972.70;1718268;83;20571;-79
2020/12/14 05:14:28;;;;;;;141.55;53.28;;;;;;;3.73;85.98;100972.70;1714322;83;21233;-79
2020/12/14 05:16:55;;;;;;;150.05;55.90;;;;;;;3.74;86.00;100973.15;1719716;83;21173;-79
2020/12/14 05:19:30;;;;;;;139.80;55.12;;;;;;;3.75;85.99;100974.88;1719444;83;21417;-79
2020/12/14 05:22:01;;;;;;;133.75;52.05;;;;;;;3.77;86.00;100976.17;1719575;83;21452;-79
2020/12/14 05:24:31;;;;;;;147.53;54.35;;;;;;;3.78;86.01;100976.62;1719278;81;21134;-79
2020/12/14 05:27:00;;;;;;;138.32;54.63;;;;;;;3.79;85.99;100983.46;1719756;83;21146;-79
2020/12/14 05:29:30;;;;;;;156.82;55.60;;;;;;;3.82;86.00;100991.19;1700271;81;21685;-79
2020/12/14 05:32:06;;;;;;;140.12;54.67;;;;;;;3.83;86.03;100989.08;1716120;83;21149;-79
2020/12/14 05:34:36;;;;;;;147.10;55.35;;;;;;;3.83;86.00;100987.38;1693222;83;21138;-79
2020/12/14 05:37:08;;;;;;;146.18;56.20;;;;;;;3.83;85.99;100987.38;1719108;83;21645;-79
2020/12/14 05:39:38;;;;;;;142.40;53.98;;;;;;;3.83;86.01;100988.66;1718138;82;21205;-79
2020/12/14 05:42:18;;;;;;;142.00;54.70;;;;;;;3.85;86.00;100988.27;1715961;83;21390;-80
2020/12/14 05:44:47;;;;;;;148.07;56.10;;;;;;;3.85;86.00;100983.56;1716010;83;21242;-79
2020/12/14 05:47:28;;;;;;;146.25;54.40;;;;;;;3.85;86.03;100991.24;1718070;83;21348;-79
2020/12/14 05:49:58;;;;;;;148.95;54.50;;;;;;;3.83;85.97;100989.94;1718310;83;21205;-79
2020/12/14 05:52:32;;;;;;;149.45;56.05;;;;;;;3.85;86.05;100989.96;1712114;83;21201;-79
2020/12/14 05:55:01;;;;;;;146.25;54.88;;;;;;;3.85;86.04;100988.68;1717938;83;21258;-79
2020/12/14 05:57:36;;;;;;;143.70;55.70;;;;;;;3.85;86.04;100988.68;1718067;83;21190;-79
2020/12/14 06:00:09;;;;;;;147.25;52.60;;;;;;;3.85;86.06;100979.73;1718123;83;21221;-79
2020/12/14 06:02:36;;;;;;;134.03;52.85;;;;;;;3.84;86.05;100977.59;1714340;82;21209;-79
2020/12/14 06:05:05;;;;;;;136.70;55.05;;;;;;;3.82;86.08;100979.67;1712911;82;21649;-79
2020/12/14 06:07:34;;;;;;;138.72;50.60;;;;;;;3.86;86.08;100981.45;1711152;82;21719;-79
2020/12/14 06:10:08;;;;;;;142.28;54.13;;;;;;;3.85;86.08;100978.45;1717687;83;21209;-79
2020/12/14 06:12:38;;;;;;;138.97;51.83;;;;;;;3.83;86.04;100979.70;1718098;83;21217;-79
2020/12/14 06:15:09;;;;;;;142.72;53.80;;;;;;;3.81;86.07;100981.38;1718282;83;21527;-79
2020/12/14 06:17:37;;;;;;;144.90;55.00;;;;;;;3.79;86.08;100970.25;1712954;82;21215;-79
2020/12/14 06:20:20;;;;;;;142.20;53.35;;;;;;;3.79;86.10;100978.34;1713912;82;21666;-79
2020/12/14 06:23:05;;;;;;;139.55;56.20;;;;;;;3.80;86.12;100979.66;1684439;82;21276;-79
2020/12/14 06:25:32;;;;;;;139.18;53.90;;;;;;;3.78;86.12;100978.76;1716689;82;21645;-79
2020/12/14 06:28:31;;;;;;;136.90;53.00;;;;;;;3.76;86.13;100980.43;1727939;81;21213;-76
2020/12/14 06:30:58;;;;;;;145.82;55.40;;;;;;;3.76;86.15;100977.88;1728006;82;21213;-76
2020/12/14 06:33:39;;;;;;;142.77;55.17;;;;;;;3.76;86.15;100985.97;1731741;82;22090;-76
2020/12/14 06:36:18;;;;;;;152.45;54.40;;;;;;;3.74;86.20;100988.49;1731971;80;21594;-76
2020/12/14 06:38:51;;;;;;;143.80;53.63;;;;;;;3.75;86.20;100998.30;1726066;82;21184;-76
2020/12/14 06:41:24;;;;;;;143.60;54.33;;;;;;;3.77;86.21;101004.31;1732172;82;21452;-76
2020/12/14 06:44:07;;;;;;;146.45;54.65;;;;;;;3.78;86.25;101009.45;1726556;81;21140;-76
2020/12/14 06:46:34;;;;;;;141.32;57.30;;;;;;;3.77;86.23;101002.61;1728957;82;21789;-76
2020/12/14 06:49:02;;;;;;;149.68;54.83;;;;;;;3.82;86.23;101009.09;1688206;82;21187;-76
2020/12/14 06:51:54;;;;;;;151.93;56.23;;;;;;;3.82;86.19;101004.84;1730685;81;21704;-76
2020/12/14 06:54:44;;;;;;;159.07;60.43;;;;;;;3.83;86.21;100996.75;1709338;82;21200;-76
2020/12/14 06:57:13;;;;;;;148.55;57.35;;;;;;;3.80;86.18;100989.87;1729008;82;22036;-76
2020/12/14 06:59:40;;;;;;;159.57;61.42;;;;;;;3.78;86.20;100985.16;1723099;81;21366;-76
2020/12/14 07:02:09;;;;;;;162.62;59.48;;;;;;;3.79;86.25;100984.73;1739879;81;23832;-76
2020/12/14 07:04:38;;;;;;;163.47;60.88;;;;;;;3.78;86.26;100990.27;1746679;81;21157;-76
2020/12/14 07:07:12;;;;;;;158.37;57.98;;;;;;;3.79;86.28;100997.53;1735219;81;21105;-76
2020/12/14 07:09:40;;;;;;;156.32;56.77;;;;;;;3.78;86.30;101002.20;1749799;81;21128;-76
2020/12/14 07:12:15;;;;;;;152.07;56.70;;;;;;;3.78;86.33;101005.62;1709920;81;21336;-76
2020/12/14 07:14:50;;;;;;;154.90;58.58;;;;;;;3.80;86.34;101009.06;1733519;81;21659;-79
2020/12/14 07:17:25;;;;;;;176.37;61.00;;;;;;;3.83;86.34;101018.48;1732304;81;21195;-80
2020/12/14 07:19:55;;;;;;;155.72;56.90;;;;;;;3.84;86.35;101016.37;1748577;81;21193;-80
2020/12/14 07:22:24;;;;;;;156.75;57.83;;;;;;;3.85;86.36;101017.68;1735049;81;21111;-80
2020/12/14 07:25:00;;;;;;;156.80;56.55;;;;;;;3.86;86.35;101016.84;1742219;81;21183;-80
2020/12/14 07:27:27;;;;;;;163.28;59.63;;;;;;;3.87;86.35;101026.24;1738523;81;21136;-80
2020/12/14 07:30:05;;;;;;;173.57;62.17;;;;;;;3.90;86.36;101028.86;1732516;81;21157;-80
2020/12/14 07:32:32;;;;;;;175.53;59.30;;;;;;;3.91;86.37;101026.74;1726775;81;21143;-81
2020/12/14 07:34:58;;;;;;;;;;;;;;;3.93;86.34;101036.59;1741939;81;21126;-80
2020/12/14 07:37:25;;;;;;;172.43;58.17;;;;;;;3.96;86.36;101035.36;1749557;81;21884;-81
2020/12/14 07:39:52;;;;;;;;;;;;;;;3.96;86.36;101035.36;1756273;81;21117;-80
2020/12/14 07:42:26;;;;;;;179.05;58.78;;;;;;;3.97;86.42;101036.23;1741709;81;20324;-81
2020/12/14 07:45:18;;;;;;;199.17;65.70;;;;;;;3.97;86.40;101039.64;1736213;81;21647;-80
2020/12/14 07:47:47;;;;;;;196.90;64.87;;;;;;;3.99;86.43;101034.14;1741661;81;21717;-80
2020/12/14 07:50:23;;;;;;;191.98;63.63;;;;;;;4.01;86.41;101030.74;1713856;82;21777;-80
2020/12/14 07:52:53;;;;;;;202.32;67.35;;;;;;;4.04;86.44;101033.36;1732862;81;21208;-80
2020/12/14 07:55:19;;;;;;;197.78;66.65;;;;;;;4.06;86.42;101036.80;1734064;81;21516;-80
2020/12/14 07:57:48;;;;;;;211.15;68.40;;;;;;;4.07;86.45;101035.97;1730362;80;21267;-80
2020/12/14 08:00:23;;;;;;;210.35;70.95;;;;;;;4.08;86.44;101033.85;1740388;81;21114;-80
2020/12/14 08:02:50;;;;;;;219.60;72.10;;;;;;;4.07;86.42;101029.57;1729370;81;21625;-80
2020/12/14 08:05:19;;;;;;;238.75;75.08;;;;;;;4.07;86.41;101032.12;1742766;81;21252;-80
2020/12/14 08:07:52;;;;;;;236.37;76.30;;;;;;;4.07;86.42;101031.71;1738133;81;21222;-80
2020/12/14 08:10:29;;;;;;;228.20;73.80;;;;;;;4.06;86.43;101022.73;1730640;81;21201;-80
2020/12/14 08:12:49;;;;;;;237.27;77.30;;;;;;;4.05;86.44;101024.84;1740908;81;21110;-78
2020/12/14 08:15:22;;;;;;;249.82;75.50;;;;;;;4.04;86.46;101015.44;1710808;81;21255;-78
2020/12/14 08:17:49;;;;;;;256.52;75.97;;;;;;;4.04;86.48;101020.56;1730829;81;22080;-81
2020/12/14 08:20:28;;;;;;;204.30;66.07;;;;;;;4.05;86.54;101022.28;1742080;81;21112;-80
2020/12/14 08:22:58;;;;;;;242.68;72.12;;;;;;;4.08;86.56;101030.02;1745661;81;21514;-80
2020/12/14 08:25:28;;;;;;;232.27;74.77;;;;;;;4.13;86.61;101033.52;1752450;81;21109;-80
2020/12/14 08:27:59;;;;;;;222.17;72.05;;;;;;;4.15;86.59;101032.70;1729239;81;21981;-80
2020/12/14 08:30:26;;;;;;;245.73;74.03;;;;;;;4.18;86.59;101034.00;1744659;82;21654;-80
2020/12/14 08:33:11;;;;;;;;;;;;;;;4.20;86.56;101029.77;1715176;82;21167;-80
2020/12/14 08:35:40;;;;;;;218.33;69.10;;;;;;;4.21;86.57;101030.22;1711285;82;20309;-80
2020/12/14 08:38:11;;;;;;;215.62;69.07;;;;;;;4.23;86.59;101028.54;1716682;82;21182;-80
2020/12/14 08:40:39;;;;;;;229.72;72.15;;;;;;;4.25;86.57;101036.25;1720779;82;21365;-80
2020/12/14 08:43:12;;;;;;;225.87;75.62;;;;;;;4.26;86.56;101026.03;1715942;81;21189;-80
2020/12/14 08:45:59;;;;;;;218.40;71.97;;;;;;;4.26;86.56;101027.31;1717966;82;21493;-79
2020/12/14 08:48:25;;;;;;;212.60;72.78;;;;;;;4.26;86.56;101026.03;1720214;81;21202;-79
2020/12/14 08:51:22;;;;;;;;;;;;;;;4.27;86.59;101028.17;1721693;82;21325;-79
2020/12/14 08:53:50;;;;;;;222.93;71.72;;;;;;;4.29;86.62;101025.22;1711344;81;21253;-79
2020/12/14 08:56:20;;;;;;;200.28;68.75;;;;;;;4.30;86.62;101022.69;1729014;81;21630;-79
2020/12/14 08:58:58;;;;;;;209.10;69.35;;;;;;;4.32;86.67;101022.30;1714473;82;21189;-78
2020/12/14 09:01:27;;;;;;;184.00;67.80;;;;;;;4.36;86.67;101021.06;1722563;82;21413;-79
2020/12/14 09:03:57;;;;;;;205.80;69.35;;;;;;;4.40;86.70;101026.67;1708716;82;21509;-77
2020/12/14 09:06:30;;;;;;;208.78;73.95;;;;;;;4.41;86.68;101024.14;1677285;83;21347;-79
2020/12/14 09:08:59;;;;;;;201.98;68.70;;;;;;;4.43;86.63;101020.32;1722877;82;21153;-79
2020/12/14 09:11:28;;;;;;;197.45;66.12;;;;;;;4.43;86.63;101022.88;1725404;82;21892;-79
2020/12/14 09:14:02;;;;;;;205.50;66.90;;;;;;;4.45;86.67;101019.51;1712117;82;20984;-79
2020/12/14 09:16:29;;;;;;;205.12;68.10;;;;;;;4.48;86.71;101027.23;1728724;82;21131;-79
2020/12/14 09:18:55;;;;;;;;;;;;;;;4.51;86.71;101027.28;1728133;82;21571;-79
2020/12/14 09:21:22;;;;;;;205.95;70.57;;;;;;;4.54;86.75;101029.89;1735930;82;27122;-79
2020/12/14 09:24:12;;;;;;;212.45;67.95;;;;;;;4.57;86.68;101023.95;1723379;82;21393;-78
2020/12/14 09:26:40;;;;;;;203.73;69.17;;;;;;;4.58;86.69;101023.12;1722232;82;21144;-79
2020/12/14 09:29:07;;;;;;;186.22;66.80;;;;;;;4.59;86.73;101028.27;1739624;82;21114;-79
2020/12/14 09:31:33;;;;;;;185.37;64.32;;;;;;;4.62;86.77;101024.47;1719560;82;21413;-81
2020/12/14 09:34:00;;;;;;;183.07;62.98;;;;;;;4.67;86.82;101026.23;1723380;82;21154;-80
2020/12/14 09:36:26;;;;;;;187.57;64.75;;;;;;;4.72;86.79;101030.97;1723244;82;20980;-80
2020/12/14 09:38:54;;;;;;;192.77;64.92;;;;;;;4.76;86.79;101028.89;1719616;82;21511;-80
2020/12/14 09:41:22;;;;;;;185.28;66.62;;;;;;;4.80;86.77;101031.52;1724301;82;21154;-81
2020/12/14 09:43:48;;;;;;;193.07;69.70;;;;;;;4.81;86.73;101028.12;1717916;81;21310;-81
2020/12/14 09:46:14;;;;;;;180.85;67.60;;;;;;;4.82;86.73;101023.44;1715746;82;21993;-80
2020/12/14 09:48:40;;;;;;;192.72;70.57;;;;;;;4.85;86.71;101022.63;1721084;82;21497;-81
2020/12/14 09:51:07;;;;;;;196.00;66.97;;;;;;;4.83;86.68;101019.17;1723504;82;21126;-81
2020/12/14 09:53:33;;;;;;;191.85;66.02;;;;;;;4.81;86.68;101024.28;1716319;82;21091;-81
2020/12/14 09:56:00;;;;;;;186.00;67.30;;;;;;;4.81;86.71;101025.56;1719255;82;21144;-81
2020/12/14 09:58:26;;;;;;;184.18;63.85;;;;;;;4.82;86.71;101024.72;1724165;82;21520;-81
2020/12/14 10:00:52;;;;;;;185.03;65.62;;;;;;;4.81;86.73;101023.00;1720633;82;21106;-81
2020/12/14 10:03:18;;;;;;;184.30;63.92;;;;;;;4.82;86.79;101022.58;1727839;82;21122;-81
2020/12/14 10:05:48;;;;;;;194.75;66.72;;;;;;;4.82;86.80;101015.75;1728908;82;21106;-81
2020/12/14 10:08:15;;;;;;;181.43;61.58;;;;;;;4.82;86.75;101011.05;1731845;81;21180;-81
2020/12/14 10:10:43;;;;;;;185.73;64.58;;;;;;;4.81;86.79;101009.33;1696965;83;21194;-80
2020/12/14 10:13:10;;;;;;;182.30;66.20;;;;;;;4.83;86.82;101003.80;1721116;82;21133;-79
2020/12/14 10:15:36;;;;;;;169.75;62.45;;;;;;;4.86;86.87;101003.43;1717117;82;21110;-80
2020/12/14 10:18:02;;;;;;;179.57;61.40;;;;;;;4.87;86.85;100999.16;1725609;82;21106;-80
2020/12/14 10:20:29;;;;;;;185.48;60.85;;;;;;;4.90;86.87;101003.05;1722871;82;21202;-81
2020/12/14 10:22:56;;;;;;;171.02;58.00;;;;;;;4.93;86.93;101000.53;1717051;82;21524;-80
2020/12/14 10:25:24;;;;;;;171.37;59.08;;;;;;;4.98;86.96;100998.89;1720407;82;21186;-80
2020/12/14 10:27:52;;;;;;;171.62;60.10;;;;;;;5.03;86.94;100991.26;1750774;81;21165;-80
2020/12/14 10:30:20;;;;;;;150.53;54.95;;;;;;;5.05;86.95;100994.28;1744809;81;21444;-80
2020/12/14 10:32:48;;;;;;;147.70;52.88;;;;;;;5.09;86.96;100988.77;1733530;81;21208;-81
2020/12/14 10:35:16;;;;;;;160.50;54.60;;;;;;;5.13;86.93;100991.81;1731103;81;21768;-80
2020/12/14 10:37:42;;;;;;;150.30;53.60;;;;;;;5.16;86.95;100985.02;1737375;81;21224;-81
2020/12/14 10:40:08;;;;;;;151.42;58.17;;;;;;;5.19;86.94;100977.79;1735316;81;21755;-81
2020/12/14 10:42:35;;;;;;;164.55;60.10;;;;;;;5.23;86.94;100980.80;1727481;81;21193;-80
2020/12/14 10:45:04;;;;;;;148.62;54.23;;;;;;;5.24;86.87;100978.25;1732881;81;26900;-80
2020/12/14 10:47:30;;;;;;;148.50;53.63;;;;;;;5.25;86.86;100979.11;1738070;81;21506;-80
2020/12/14 10:49:56;;;;;;;176.65;60.70;;;;;;;5.28;86.91;100981.71;1751336;81;21367;-81
2020/12/14 10:52:23;;;;;;;163.12;58.70;;;;;;;5.33;86.92;100976.21;1748432;81;21169;-77
2020/12/14 10:54:50;;;;;;;168.55;58.42;;;;;;;5.36;86.89;100977.95;1734258;81;21606;-80
2020/12/14 10:57:18;;;;;;;164.72;55.95;;;;;;;5.35;86.85;100980.08;1746508;81;21289;-80
2020/12/14 10:59:44;;;;;;;151.80;55.92;;;;;;;5.38;86.97;100979.69;1741000;81;21725;-80
2020/12/14 11:02:11;;;;;;;157.10;54.77;;;;;;;5.43;86.99;100970.34;1733396;81;21213;-80
2020/12/14 11:04:38;;;;;;;163.35;58.63;;;;;;;5.47;86.93;100977.65;1734037;81;21197;-80
2020/12/14 11:07:09;;;;;;;161.52;59.23;;;;;;;5.49;86.92;100974.67;1735177;81;21168;-80
2020/12/14 11:09:36;;;;;;;158.80;56.85;;;;;;;5.51;86.91;100968.72;1740248;81;21705;-78
2020/12/14 11:12:06;;;;;;;159.67;57.43;;;;;;;5.55;86.96;100969.19;1731996;81;21201;-79
2020/12/14 11:14:33;;;;;;;145.92;53.85;;;;;;;5.59;86.98;100968.80;1710922;82;21232;-79
2020/12/14 11:17:02;;;;;;;160.93;57.40;;;;;;;5.65;87.00;100974.84;1707760;81;21228;-79
2020/12/14 11:19:28;;;;;;;152.30;56.13;;;;;;;5.70;86.95;100973.61;1730266;81;21201;-80
2020/12/14 11:21:55;;;;;;;147.98;53.00;;;;;;;5.72;86.89;100983.44;1747174;81;21241;-80